Time;durP1;ratioP1;P1;durP2;ratioP2;P2;SDS_P1;SDS_P2;PMS_P1;PMS_P2;Temp;Humidity;BMP_temperature;BMP_pressure;BME280_temperature;BME280_humidity;BME280_pressure;Samples;Min_cycle;Max_cycle;Signal;HPM_P1;HPM_P2
2022/01/20 00:03:32;;;;;;;80.15;38.05;;;;;;;;;;4994443;28;20467;-59
2022/01/20 00:09:04;;;;;;;80.57;36.25;;;;;;;;;;4994731;28;20054;-62
2022/01/20 00:27:56;;;;;;;114.10;53.75;;;;;;;;;;4994131;28;20044;-62
2022/01/20 00:30:40;;;;;;;152.20;70.82;;;;;;;;;;4994322;28;20030;-59
2022/01/20 00:38:22;;;;;;;166.55;74.63;;;;;;;;;;4982759;28;20121;-60
2022/01/20 00:40:49;;;;;;;153.07;68.15;;;;;;;;;;4994192;28;20028;-59
2022/01/20 00:43:15;;;;;;;225.43;88.65;;;;;;;;;;4994773;28;20044;-62
2022/01/20 00:45:41;;;;;;;171.48;75.93;;;;;;;;;;4993631;28;20023;-56
2022/01/20 00:48:07;;;;;;;174.45;74.55;;;;;;;;;;4993877;28;20395;-60
2022/01/20 00:50:38;;;;;;;213.95;93.47;;;;;;;;;;4993925;28;20430;-61
2022/01/20 00:53:04;;;;;;;197.18;90.88;;;;;;;;;;4997095;28;20084;-58
2022/01/20 00:55:30;;;;;;;241.00;111.20;;;;;;;;;;4998067;28;20025;-61
2022/01/20 00:57:56;;;;;;;222.10;102.25;;;;;;;;;;4997869;28;20036;-63
2022/01/20 01:00:23;;;;;;;231.77;104.50;;;;;;;;;;4997978;28;20019;-61
2022/01/20 01:02:49;;;;;;;247.10;113.38;;;;;;;;;;4998317;28;20030;-58
2022/01/20 01:05:15;;;;;;;259.35;122.72;;;;;;;;;;4997955;28;20022;-60
2022/01/20 01:07:46;;;;;;;293.92;132.82;;;;;;;;;;4997270;28;20041;-60
2022/01/20 01:10:14;;;;;;;273.25;126.90;;;;;;;;;;4998520;28;20049;-60
2022/01/20 01:12:48;;;;;;;265.55;117.93;;;;;;;;;;4997798;28;20053;-62
2022/01/20 01:15:20;;;;;;;257.05;116.38;;;;;;;;;;4997608;28;20032;-59
2022/01/20 01:20:44;;;;;;;284.38;124.57;;;;;;;;;;4997668;28;20633;-63
2022/01/20 01:23:10;;;;;;;299.13;133.07;;;;;;;;;;4998191;28;20030;-59
2022/01/20 01:25:36;;;;;;;251.57;116.30;;;;;;;;;;4997595;28;20022;-59
2022/01/20 01:28:03;;;;;;;248.90;107.88;;;;;;;;;;4997183;28;20356;-62
2022/01/20 01:33:10;;;;;;;233.38;99.85;;;;;;;;;;4997505;28;20483;-59
2022/01/20 01:35:40;;;;;;;208.50;92.38;;;;;;;;;;4997060;28;20035;-58
2022/01/20 01:40:34;;;;;;;218.95;97.90;;;;;;;;;;4997303;28;20034;-59
2022/01/20 01:43:11;;;;;;;192.48;87.90;;;;;;;;;;4996965;28;20097;-59
2022/01/20 01:45:40;;;;;;;210.07;94.72;;;;;;;;;;4997225;28;20027;-60
2022/01/20 01:48:06;;;;;;;202.40;92.13;;;;;;;;;;4997283;28;20387;-58
2022/01/20 01:50:33;;;;;;;206.60;92.57;;;;;;;;;;4996562;28;20021;-59
2022/01/20 01:53:02;;;;;;;220.65;100.38;;;;;;;;;;4996754;28;20019;-60
2022/01/20 01:55:28;;;;;;;154.18;70.70;;;;;;;;;;4996673;28;20026;-60
2022/01/20 01:57:54;;;;;;;175.07;81.20;;;;;;;;;;4997138;28;20460;-61
2022/01/20 02:00:20;;;;;;;167.73;74.63;;;;;;;;;;4996691;28;20018;-62
2022/01/20 02:02:47;;;;;;;190.45;86.05;;;;;;;;;;4996298;28;20080;-60
2022/01/20 02:05:14;;;;;;;181.30;81.40;;;;;;;;;;4997180;28;20022;-59
2022/01/20 02:18:45;;;;;;;231.80;106.68;;;;;;;;;;4996753;28;20114;-59
2022/01/20 02:21:11;;;;;;;233.73;106.90;;;;;;;;;;4996910;28;20122;-62
2022/01/20 02:23:37;;;;;;;258.95;112.43;;;;;;;;;;4996512;28;20470;-59
2022/01/20 02:26:04;;;;;;;235.40;107.00;;;;;;;;;;4996670;28;20092;-61
2022/01/20 02:28:30;;;;;;;259.27;111.68;;;;;;;;;;4996390;28;20034;-63
2022/01/20 02:30:56;;;;;;;238.13;108.43;;;;;;;;;;4996503;28;20030;-58
2022/01/20 02:33:24;;;;;;;241.70;107.03;;;;;;;;;;4996334;28;20495;-61
2022/01/20 02:35:52;;;;;;;236.40;105.70;;;;;;;;;;4996525;28;20376;-59
2022/01/20 02:38:29;;;;;;;221.85;102.45;;;;;;;;;;4995639;28;20117;-63
2022/01/20 02:46:26;;;;;;;175.45;81.30;;;;;;;;;;4995542;28;20073;-59
2022/01/20 02:48:52;;;;;;;158.38;69.50;;;;;;;;;;4996190;28;20026;-61
2022/01/20 02:51:18;;;;;;;125.53;60.08;;;;;;;;;;4995824;28;20450;-58
2022/01/20 02:53:44;;;;;;;94.90;41.65;;;;;;;;;;4995960;28;20448;-60
2022/01/20 02:56:10;;;;;;;318.77;125.47;;;;;;;;;;4995963;28;20022;-61
2022/01/20 02:58:36;;;;;;;85.07;41.45;;;;;;;;;;4995332;28;20030;-57
2022/01/20 03:01:03;;;;;;;118.28;53.33;;;;;;;;;;4995598;28;20022;-59
2022/01/20 03:03:30;;;;;;;131.75;58.22;;;;;;;;;;4995755;28;20487;-60
2022/01/20 03:05:56;;;;;;;141.27;58.85;;;;;;;;;;4995742;28;20529;-60
2022/01/20 03:08:22;;;;;;;136.43;60.22;;;;;;;;;;4995126;28;20470;-60
2022/01/20 03:10:48;;;;;;;161.85;70.40;;;;;;;;;;4996136;28;20442;-61
2022/01/20 03:13:14;;;;;;;142.90;68.28;;;;;;;;;;4995268;28;20030;-60
2022/01/20 03:15:42;;;;;;;178.75;74.78;;;;;;;;;;4995098;28;20026;-61
2022/01/20 03:18:08;;;;;;;184.35;75.75;;;;;;;;;;4995369;28;20034;-61
2022/01/20 03:20:35;;;;;;;150.02;63.75;;;;;;;;;;4995171;28;20022;-60
2022/01/20 03:23:01;;;;;;;154.57;64.25;;;;;;;;;;4995085;28;20038;-60
2022/01/20 03:25:28;;;;;;;125.70;56.75;;;;;;;;;;4995360;28;20030;-61
2022/01/20 03:27:55;;;;;;;130.52;57.25;;;;;;;;;;4994736;28;20036;-58
2022/01/20 03:30:21;;;;;;;112.45;53.10;;;;;;;;;;4995232;28;20048;-60
2022/01/20 03:32:47;;;;;;;173.70;68.20;;;;;;;;;;4994673;28;20058;-59
2022/01/20 03:35:14;;;;;;;109.18;49.85;;;;;;;;;;4994903;28;20041;-58
2022/01/20 03:37:40;;;;;;;116.32;49.75;;;;;;;;;;4995317;28;20447;-57
2022/01/20 03:40:07;;;;;;;351.70;127.60;;;;;;;;;;4994667;28;20463;-60
2022/01/20 03:42:33;;;;;;;135.07;61.70;;;;;;;;;;4994753;28;20073;-61
2022/01/20 03:44:59;;;;;;;140.45;61.83;;;;;;;;;;4995224;28;20031;-61
2022/01/20 03:47:26;;;;;;;184.70;83.95;;;;;;;;;;4994616;28;20034;-62
2022/01/20 03:50:08;;;;;;;214.82;90.65;;;;;;;;;;4994934;28;20034;-61
2022/01/20 03:52:35;;;;;;;208.27;89.32;;;;;;;;;;4995232;28;20037;-62
2022/01/20 03:55:01;;;;;;;194.75;80.90;;;;;;;;;;4994533;28;20427;-60
2022/01/20 03:57:28;;;;;;;192.63;82.82;;;;;;;;;;4994765;28;20037;-58
2022/01/20 03:59:55;;;;;;;191.75;83.50;;;;;;;;;;4994451;28;20114;-59
2022/01/20 04:02:21;;;;;;;198.82;85.43;;;;;;;;;;4994725;28;20472;-61
2022/01/20 04:04:47;;;;;;;183.05;79.97;;;;;;;;;;4994831;28;20022;-59
2022/01/20 04:07:13;;;;;;;176.95;75.32;;;;;;;;;;4994236;28;20025;-62
2022/01/20 04:09:39;;;;;;;160.43;67.93;;;;;;;;;;4994289;28;20104;-61
2022/01/20 04:12:06;;;;;;;148.38;66.38;;;;;;;;;;4994621;28;20033;-61
2022/01/20 04:14:34;;;;;;;155.93;65.53;;;;;;;;;;4994577;28;20035;-60
2022/01/20 04:17:03;;;;;;;159.20;63.90;;;;;;;;;;4994238;28;20415;-60
2022/01/20 04:19:32;;;;;;;159.05;65.60;;;;;;;;;;4994405;28;20023;-61
2022/01/20 04:21:59;;;;;;;178.35;73.22;;;;;;;;;;4994500;28;20364;-60
2022/01/20 04:24:25;;;;;;;173.43;70.85;;;;;;;;;;4994038;28;20102;-60
2022/01/20 04:26:51;;;;;;;167.20;68.07;;;;;;;;;;4993836;28;20058;-61
2022/01/20 04:29:17;;;;;;;178.52;69.15;;;;;;;;;;4994321;28;20045;-59
2022/01/20 04:31:45;;;;;;;131.45;55.90;;;;;;;;;;4994106;28;20022;-60
2022/01/20 04:34:12;;;;;;;93.50;41.00;;;;;;;;;;4994311;28;20020;-57
2022/01/20 04:36:42;;;;;;;83.20;39.70;;;;;;;;;;4993727;28;20026;-59
2022/01/20 04:39:12;;;;;;;95.90;39.63;;;;;;;;;;4995089;28;20030;-59
2022/01/20 04:41:38;;;;;;;91.05;39.72;;;;;;;;;;4994873;28;20109;-60
2022/01/20 04:44:10;;;;;;;92.65;41.35;;;;;;;;;;4994171;28;20023;-60
2022/01/20 04:46:47;;;;;;;132.05;52.75;;;;;;;;;;4993862;28;20057;-60
2022/01/20 04:57:21;;;;;;;119.22;51.30;;;;;;;;;;4993987;28;20046;-61
2022/01/20 04:59:48;;;;;;;119.65;48.38;;;;;;;;;;4994414;28;20022;-60
2022/01/20 05:02:15;;;;;;;123.43;48.75;;;;;;;;;;4993811;28;20050;-61
2022/01/20 05:04:41;;;;;;;131.73;53.35;;;;;;;;;;4994433;28;20101;-62
2022/01/20 05:07:08;;;;;;;118.57;52.65;;;;;;;;;;4994307;28;20038;-61
2022/01/20 05:09:35;;;;;;;136.02;52.95;;;;;;;;;;4993657;28;20050;-61
2022/01/20 05:12:06;;;;;;;140.10;56.88;;;;;;;;;;4993615;28;20045;-61
2022/01/20 05:14:32;;;;;;;;;;;;;;;;;;4994485;28;20034;-61
2022/01/20 05:16:59;;;;;;;124.13;50.85;;;;;;;;;;4993968;28;19906;-60
2022/01/20 05:19:26;;;;;;;162.05;65.63;;;;;;;;;;4993346;28;20037;-62
2022/01/20 05:21:53;;;;;;;162.23;64.63;;;;;;;;;;4993866;28;20357;-60
2022/01/20 05:24:22;;;;;;;164.75;69.40;;;;;;;;;;4993770;28;20022;-60
2022/01/20 05:26:50;;;;;;;174.02;72.65;;;;;;;;;;4993124;28;20356;-58
2022/01/20 05:29:16;;;;;;;152.82;64.38;;;;;;;;;;4993486;28;20171;-59
2022/01/20 05:31:42;;;;;;;165.60;69.30;;;;;;;;;;4993799;28;20041;-61
2022/01/20 05:34:09;;;;;;;176.75;69.00;;;;;;;;;;4993462;28;20029;-60
2022/01/20 05:36:36;;;;;;;103.38;45.33;;;;;;;;;;4993633;28;20029;-61
2022/01/20 05:39:04;;;;;;;73.50;32.28;;;;;;;;;;4996189;28;20390;-61
2022/01/20 05:41:31;;;;;;;63.33;29.20;;;;;;;;;;4996981;28;20026;-60
2022/01/20 05:43:57;;;;;;;88.65;32.33;;;;;;;;;;4997093;28;20146;-62
2022/01/20 05:46:34;;;;;;;65.03;29.40;;;;;;;;;;4995902;28;20027;-59
2022/01/20 05:49:08;;;;;;;62.75;26.60;;;;;;;;;;4996676;28;20037;-61
2022/01/20 05:51:35;;;;;;;65.95;29.40;;;;;;;;;;4997163;28;20464;-60
2022/01/20 05:54:01;;;;;;;145.77;61.40;;;;;;;;;;4979007;28;20363;-59
2022/01/20 05:56:27;;;;;;;185.93;77.18;;;;;;;;;;4996494;28;20495;-60
2022/01/20 05:58:54;;;;;;;151.75;66.22;;;;;;;;;;4979338;28;20375;-60
2022/01/20 06:01:21;;;;;;;168.48;68.43;;;;;;;;;;4996484;28;20018;-61
2022/01/20 06:03:48;;;;;;;402.08;131.93;;;;;;;;;;4994864;28;20502;-62
2022/01/20 06:06:14;;;;;;;306.13;105.50;;;;;;;;;;4994935;28;20034;-60
2022/01/20 06:08:42;;;;;;;445.58;141.23;;;;;;;;;;4994200;28;20054;-61
2022/01/20 06:11:09;;;;;;;126.40;52.90;;;;;;;;;;4996382;28;20471;-61
2022/01/20 06:13:35;;;;;;;168.93;74.18;;;;;;;;;;4996483;28;20033;-59
2022/01/20 06:16:02;;;;;;;179.27;77.80;;;;;;;;;;4996022;28;20042;-61
2022/01/20 06:18:28;;;;;;;207.57;91.85;;;;;;;;;;4996202;28;20120;-63
2022/01/20 06:20:54;;;;;;;205.95;89.30;;;;;;;;;;4996202;28;20484;-59
2022/01/20 06:23:21;;;;;;;212.40;91.13;;;;;;;;;;4996069;28;20085;-59
2022/01/20 06:25:47;;;;;;;199.50;91.22;;;;;;;;;;4996094;28;20472;-61
2022/01/20 06:28:14;;;;;;;310.85;140.40;;;;;;;;;;4996008;28;20026;-61
2022/01/20 06:30:40;;;;;;;332.60;148.48;;;;;;;;;;4996159;28;20093;-61
2022/01/20 06:33:07;;;;;;;356.52;166.60;;;;;;;;;;4995979;28;20085;-62
2022/01/20 06:35:33;;;;;;;251.82;112.00;;;;;;;;;;4995888;28;20316;-63
2022/01/20 06:38:00;;;;;;;290.35;132.93;;;;;;;;;;4995778;28;20026;-62
2022/01/20 06:40:26;;;;;;;307.60;145.48;;;;;;;;;;4996079;28;20039;-61
2022/01/20 06:42:53;;;;;;;322.02;146.38;;;;;;;;;;4995715;28;20018;-62
2022/01/20 06:45:19;;;;;;;214.60;94.82;;;;;;;;;;4995684;28;20033;-63
2022/01/20 06:47:45;;;;;;;260.75;128.35;;;;;;;;;;4995561;28;20026;-61
2022/01/20 06:50:12;;;;;;;214.90;99.50;;;;;;;;;;4994434;28;20026;-61
2022/01/20 06:52:39;;;;;;;237.05;111.32;;;;;;;;;;4995649;28;20101;-59
2022/01/20 06:55:07;;;;;;;229.40;109.47;;;;;;;;;;4993831;28;20088;-62
2022/01/20 06:57:34;;;;;;;245.75;116.32;;;;;;;;;;4993614;28;20073;-62
2022/01/20 07:00:00;;;;;;;263.67;118.43;;;;;;;;;;4993451;28;20073;-60
2022/01/20 07:02:27;;;;;;;311.33;136.27;;;;;;;;;;4991250;28;20181;-62
2022/01/20 07:04:53;;;;;;;293.27;133.98;;;;;;;;;;4990743;28;20395;-59
2022/01/20 07:07:19;;;;;;;304.40;137.95;;;;;;;;;;4993976;28;20511;-63
2022/01/20 07:09:46;;;;;;;265.63;121.75;;;;;;;;;;4993971;28;20050;-60
2022/01/20 07:12:12;;;;;;;238.13;109.93;;;;;;;;;;4994506;28;20080;-62
2022/01/20 07:14:39;;;;;;;241.95;112.35;;;;;;;;;;4993840;28;20036;-60
2022/01/20 07:17:06;;;;;;;398.83;160.70;;;;;;;;;;4993662;28;20030;-62
2022/01/20 07:19:32;;;;;;;261.02;118.47;;;;;;;;;;4994038;28;20158;-63
2022/01/20 07:21:59;;;;;;;249.00;115.63;;;;;;;;;;4995125;28;20030;-62
2022/01/20 07:24:27;;;;;;;246.88;118.07;;;;;;;;;;4994685;28;20025;-59
2022/01/20 07:26:53;;;;;;;237.07;111.30;;;;;;;;;;4995075;28;20022;-59
2022/01/20 07:29:19;;;;;;;250.68;121.18;;;;;;;;;;4995040;28;20036;-60
2022/01/20 07:31:45;;;;;;;299.23;142.52;;;;;;;;;;4994380;28;20023;-62
2022/01/20 07:34:12;;;;;;;293.83;137.88;;;;;;;;;;4995130;28;20105;-61
2022/01/20 07:36:38;;;;;;;297.83;147.50;;;;;;;;;;4995053;28;20058;-60
2022/01/20 07:39:05;;;;;;;274.40;138.35;;;;;;;;;;4994686;28;20030;-61
2022/01/20 07:41:31;;;;;;;269.17;133.45;;;;;;;;;;4994434;28;20022;-63
2022/01/20 07:43:57;;;;;;;287.52;142.82;;;;;;;;;;4995270;28;20582;-60
2022/01/20 07:46:24;;;;;;;281.25;139.13;;;;;;;;;;4994616;28;20093;-61
2022/01/20 07:48:50;;;;;;;249.65;121.20;;;;;;;;;;4977447;28;20368;-60
2022/01/20 07:51:16;;;;;;;296.50;147.48;;;;;;;;;;4994834;28;20029;-58
2022/01/20 07:53:42;;;;;;;328.67;169.75;;;;;;;;;;4994312;28;20463;-63
2022/01/20 07:56:09;;;;;;;308.48;152.23;;;;;;;;;;4994867;28;20031;-61
2022/01/20 07:58:35;;;;;;;199.80;100.90;;;;;;;;;;4994495;28;20101;-61
2022/01/20 08:01:02;;;;;;;189.15;94.97;;;;;;;;;;4994103;28;20109;-59
2022/01/20 08:03:28;;;;;;;303.35;151.25;;;;;;;;;;4994523;28;20042;-62
2022/01/20 08:05:55;;;;;;;282.25;144.07;;;;;;;;;;4994663;28;20126;-61
2022/01/20 08:08:21;;;;;;;249.25;127.78;;;;;;;;;;4994086;28;20459;-61
2022/01/20 08:10:47;;;;;;;230.00;111.95;;;;;;;;;;4994384;28;20468;-63
2022/01/20 08:13:13;;;;;;;226.02;115.18;;;;;;;;;;4994062;28;20030;-61
2022/01/20 08:15:39;;;;;;;198.38;97.68;;;;;;;;;;4994848;28;20026;-62
2022/01/20 08:18:07;;;;;;;186.93;87.68;;;;;;;;;;4994365;28;20026;-65
2022/01/20 08:20:33;;;;;;;158.55;78.28;;;;;;;;;;4993859;28;20058;-59
2022/01/20 08:22:59;;;;;;;409.40;220.02;;;;;;;;;;4994512;28;20046;-61
2022/01/20 08:25:26;;;;;;;406.98;226.73;;;;;;;;;;4994202;28;20034;-61
2022/01/20 08:27:52;;;;;;;389.80;211.60;;;;;;;;;;4993727;28;20464;-63
2022/01/20 08:30:19;;;;;;;369.00;202.65;;;;;;;;;;4994302;28;20030;-63
2022/01/20 08:32:46;;;;;;;332.65;177.13;;;;;;;;;;4994517;28;20101;-61
2022/01/20 08:35:13;;;;;;;270.35;142.25;;;;;;;;;;4993886;28;20030;-64
2022/01/20 08:37:42;;;;;;;277.63;147.77;;;;;;;;;;4994166;28;20019;-61
2022/01/20 08:40:13;;;;;;;318.75;170.73;;;;;;;;;;4993888;28;20022;-58
2022/01/20 08:42:40;;;;;;;306.42;160.63;;;;;;;;;;4993894;28;20029;-61
2022/01/20 08:45:07;;;;;;;289.67;159.93;;;;;;;;;;4993866;28;20518;-60
2022/01/20 08:47:33;;;;;;;149.77;77.15;;;;;;;;;;4993946;28;20069;-63
2022/01/20 08:50:00;;;;;;;256.15;135.30;;;;;;;;;;4993473;28;20034;-63
2022/01/20 08:52:28;;;;;;;342.92;200.77;;;;;;;;;;4993848;28;20387;-61
2022/01/20 08:54:56;;;;;;;288.45;161.32;;;;;;;;;;4993707;28;20361;-62
2022/01/20 08:57:23;;;;;;;314.83;182.15;;;;;;;;;;4993402;28;20026;-62
2022/01/20 08:59:49;;;;;;;303.95;172.63;;;;;;;;;;4994290;28;20029;-61
2022/01/20 09:02:15;;;;;;;297.83;165.23;;;;;;;;;;4993419;28;20110;-61
2022/01/20 09:04:41;;;;;;;282.45;160.93;;;;;;;;;;4993848;28;20023;-62
2022/01/20 09:07:07;;;;;;;288.67;172.90;;;;;;;;;;4994039;28;20034;-62
2022/01/20 09:09:40;;;;;;;265.10;150.63;;;;;;;;;;4993404;28;20134;-62
2022/01/20 09:17:28;;;;;;;259.83;148.93;;;;;;;;;;4994464;28;20117;-64
2022/01/20 09:19:54;;;;;;;292.48;171.10;;;;;;;;;;4980502;28;20025;-63
2022/01/20 09:22:21;;;;;;;257.17;151.43;;;;;;;;;;4976789;28;20031;-62
2022/01/20 09:24:47;;;;;;;275.05;159.88;;;;;;;;;;4977298;28;20062;-62
2022/01/20 09:27:14;;;;;;;252.85;151.10;;;;;;;;;;4977818;28;20042;-63
2022/01/20 09:29:41;;;;;;;251.82;147.85;;;;;;;;;;4978185;28;20101;-63
2022/01/20 09:32:09;;;;;;;246.63;144.00;;;;;;;;;;4986362;28;20438;-63
2022/01/20 09:34:35;;;;;;;251.20;147.00;;;;;;;;;;4995593;28;20034;-61
2022/01/20 09:37:01;;;;;;;165.90;101.68;;;;;;;;;;4994303;28;20029;-63
2022/01/20 09:39:27;;;;;;;170.77;98.10;;;;;;;;;;4988165;28;20038;-60
2022/01/20 09:41:54;;;;;;;66.03;35.55;;;;;;;;;;4976602;28;20042;-62
2022/01/20 09:44:20;;;;;;;48.40;25.65;;;;;;;;;;4977350;28;20023;-61
2022/01/20 09:46:46;;;;;;;48.70;27.48;;;;;;;;;;4976955;28;20035;-61
2022/01/20 09:49:13;;;;;;;64.03;34.95;;;;;;;;;;4977362;28;20022;-60
2022/01/20 09:51:45;;;;;;;63.70;36.55;;;;;;;;;;4977088;28;20030;-62
2022/01/20 09:54:23;;;;;;;60.33;33.00;;;;;;;;;;4976462;28;20110;-61
2022/01/20 09:56:53;;;;;;;60.40;33.95;;;;;;;;;;4977137;28;20035;-62
2022/01/20 09:59:19;;;;;;;56.17;32.35;;;;;;;;;;4976826;28;20027;-61
2022/01/20 10:01:46;;;;;;;57.58;33.33;;;;;;;;;;4981858;28;20026;-62
2022/01/20 10:04:19;;;;;;;58.33;33.25;;;;;;;;;;4995358;28;20069;-62
2022/01/20 10:07:09;;;;;;;59.75;31.23;;;;;;;;;;4983138;28;20023;-62
2022/01/20 10:09:39;;;;;;;54.42;30.13;;;;;;;;;;4976273;28;20554;-62
2022/01/20 10:12:07;;;;;;;63.53;34.83;;;;;;;;;;4975000;28;20033;-62
2022/01/20 10:14:41;;;;;;;67.05;38.72;;;;;;;;;;4974975;28;20031;-62
2022/01/20 10:17:14;;;;;;;51.78;30.20;;;;;;;;;;4981966;28;20038;-62
2022/01/20 10:19:40;;;;;;;82.38;45.72;;;;;;;;;;4976290;28;20115;-61
2022/01/20 10:22:10;;;;;;;65.05;35.53;;;;;;;;;;4990566;28;20031;-61
2022/01/20 10:24:37;;;;;;;54.28;30.20;;;;;;;;;;4994023;28;20028;-63
2022/01/20 10:27:09;;;;;;;49.03;29.55;;;;;;;;;;4994002;28;20125;-62
2022/01/20 10:29:35;;;;;;;42.50;25.70;;;;;;;;;;4994583;28;20029;-63
2022/01/20 10:32:01;;;;;;;35.45;19.15;;;;;;;;;;4995275;28;20096;-63
2022/01/20 10:34:32;;;;;;;80.28;39.45;;;;;;;;;;4993798;28;20146;-61
2022/01/20 10:37:28;;;;;;;;;;;;;;;;;;;;;
2022/01/20 10:40:13;;;;;;;165.50;98.85;;;;;;;;;;4990847;28;20034;-62
2022/01/20 10:42:40;;;;;;;185.63;114.13;;;;;;;;;;4993215;28;20026;-60
2022/01/20 10:45:07;;;;;;;157.35;98.20;;;;;;;;;;4995861;28;20022;-62
2022/01/20 10:47:36;;;;;;;160.93;99.50;;;;;;;;;;4995338;28;20097;-61
2022/01/20 10:50:10;;;;;;;136.60;86.07;;;;;;;;;;4980724;28;20357;-61
2022/01/20 10:52:37;;;;;;;146.25;93.28;;;;;;;;;;4976262;28;20098;-62
2022/01/20 10:55:03;;;;;;;140.48;91.03;;;;;;;;;;4975447;28;20023;-62
2022/01/20 10:57:34;;;;;;;149.82;91.25;;;;;;;;;;4976156;28;20031;-62
2022/01/20 11:00:03;;;;;;;146.70;88.13;;;;;;;;;;4975770;28;20502;-63
2022/01/20 11:02:30;;;;;;;148.13;90.10;;;;;;;;;;4975691;28;20031;-60
2022/01/20 11:04:57;;;;;;;137.25;82.70;;;;;;;;;;4976185;28;20081;-62
2022/01/20 11:07:24;;;;;;;132.98;80.20;;;;;;;;;;4975794;28;20142;-62
2022/01/20 11:09:56;;;;;;;135.10;80.72;;;;;;;;;;4974837;28;20086;-62
2022/01/20 11:12:23;;;;;;;117.75;74.75;;;;;;;;;;4974619;28;20105;-63
2022/01/20 11:14:51;;;;;;;143.40;89.03;;;;;;;;;;4974701;28;20031;-64
2022/01/20 11:17:27;;;;;;;135.60;81.55;;;;;;;;;;4975715;28;20026;-62
2022/01/20 11:19:56;;;;;;;117.45;72.20;;;;;;;;;;4975995;28;20027;-62
2022/01/20 11:22:23;;;;;;;115.90;64.75;;;;;;;;;;4975345;28;20484;-62
2022/01/20 11:25:18;;;;;;;99.55;58.70;;;;;;;;;;4975879;28;20367;-62
2022/01/20 11:27:44;;;;;;;95.07;57.40;;;;;;;;;;4970569;28;20428;-64
2022/01/20 11:30:13;;;;;;;101.00;61.35;;;;;;;;;;4975250;28;20018;-61
2022/01/20 11:32:41;;;;;;;97.55;56.95;;;;;;;;;;4975395;28;20033;-62
2022/01/20 11:35:08;;;;;;;98.05;58.42;;;;;;;;;;4975380;28;20530;-62
2022/01/20 11:37:36;;;;;;;91.78;53.75;;;;;;;;;;4975433;28;20034;-61
2022/01/20 11:40:15;;;;;;;97.55;59.28;;;;;;;;;;4975176;28;20513;-63
2022/01/20 11:42:42;;;;;;;98.07;58.10;;;;;;;;;;4973692;28;20027;-62
2022/01/20 11:45:23;;;;;;;89.20;52.15;;;;;;;;;;4974149;28;20041;-61
2022/01/20 11:47:49;;;;;;;107.65;60.78;;;;;;;;;;4957965;28;20449;-62
2022/01/20 11:50:17;;;;;;;114.45;65.85;;;;;;;;;;4975121;28;20034;-62
2022/01/20 11:55:56;;;;;;;124.13;69.60;;;;;;;;;;4974457;28;20030;-62
2022/01/20 11:58:23;;;;;;;124.63;67.82;;;;;;;;;;4974431;28;20038;-61
2022/01/20 12:00:59;;;;;;;125.18;67.60;;;;;;;;;;4974785;28;20384;-61
2022/01/20 12:03:26;;;;;;;123.68;67.47;;;;;;;;;;4975185;28;20054;-62
2022/01/20 12:06:03;;;;;;;122.00;68.35;;;;;;;;;;4974605;28;20027;-63
2022/01/20 12:08:29;;;;;;;137.23;76.93;;;;;;;;;;4974597;28;20063;-62
2022/01/20 12:11:07;;;;;;;132.90;71.70;;;;;;;;;;4975237;28;20420;-61
2022/01/20 12:13:33;;;;;;;138.65;77.82;;;;;;;;;;4975328;28;20556;-62
2022/01/20 12:16:01;;;;;;;127.10;70.90;;;;;;;;;;4975007;28;20034;-61
2022/01/20 12:18:30;;;;;;;116.85;62.50;;;;;;;;;;4974582;28;20027;-62
2022/01/20 12:21:01;;;;;;;116.80;64.28;;;;;;;;;;4974968;28;20015;-62
2022/01/20 12:23:27;;;;;;;96.90;53.00;;;;;;;;;;4974868;28;20368;-63
2022/01/20 12:26:01;;;;;;;82.47;44.58;;;;;;;;;;4974554;28;20276;-62
2022/01/20 12:28:27;;;;;;;77.57;45.08;;;;;;;;;;4974956;28;20035;-61
2022/01/20 12:31:01;;;;;;;82.85;45.00;;;;;;;;;;4974642;28;20031;-62
2022/01/20 12:33:30;;;;;;;85.95;45.90;;;;;;;;;;4974366;28;20522;-62
2022/01/20 12:36:02;;;;;;;85.20;46.72;;;;;;;;;;4974799;28;20058;-61
2022/01/20 12:38:28;;;;;;;76.43;42.70;;;;;;;;;;4974802;28;20062;-62
2022/01/20 12:41:08;;;;;;;75.65;38.72;;;;;;;;;;4974159;28;20150;-62
2022/01/20 12:43:48;;;;;;;88.93;46.42;;;;;;;;;;4974750;28;20019;-63
2022/01/20 12:46:16;;;;;;;81.13;41.92;;;;;;;;;;4974145;28;20498;-63
2022/01/20 12:49:00;;;;;;;91.95;48.22;;;;;;;;;;4977167;28;20499;-61
2022/01/20 12:51:31;;;;;;;96.38;51.47;;;;;;;;;;4978681;28;20034;-62
2022/01/20 12:54:04;;;;;;;95.18;51.53;;;;;;;;;;4978383;28;20050;-62
2022/01/20 12:56:32;;;;;;;87.45;48.80;;;;;;;;;;4978667;28;20077;-62
2022/01/20 12:58:58;;;;;;;72.65;42.17;;;;;;;;;;4978561;28;20459;-62
2022/01/20 13:01:24;;;;;;;74.28;40.20;;;;;;;;;;4978181;28;20027;-65
2022/01/20 13:03:51;;;;;;;75.65;41.35;;;;;;;;;;4978427;28;20034;-61
2022/01/20 13:06:24;;;;;;;80.68;43.33;;;;;;;;;;4978397;28;20030;-63
2022/01/20 13:09:01;;;;;;;75.82;38.85;;;;;;;;;;4977408;28;20050;-62
2022/01/20 13:11:28;;;;;;;59.72;33.50;;;;;;;;;;4977993;28;20137;-62
2022/01/20 13:13:55;;;;;;;54.78;31.00;;;;;;;;;;4978220;28;20031;-61
2022/01/20 13:16:21;;;;;;;45.50;27.08;;;;;;;;;;4979304;28;20026;-63
2022/01/20 13:18:57;;;;;;;46.42;26.52;;;;;;;;;;4987938;28;20032;-61
2022/01/20 13:21:36;;;;;;;49.13;28.15;;;;;;;;;;4997368;28;20029;-59
2022/01/20 13:24:04;;;;;;;50.42;31.40;;;;;;;;;;4996528;28;20029;-59
2022/01/20 13:26:30;;;;;;;42.83;25.92;;;;;;;;;;4997279;28;20065;-61
2022/01/20 13:28:59;;;;;;;49.22;29.10;;;;;;;;;;4996929;28;20073;-62
2022/01/20 13:31:25;;;;;;;52.40;30.58;;;;;;;;;;4996625;28;20022;-60
2022/01/20 13:33:51;;;;;;;45.53;28.23;;;;;;;;;;4990584;28;20035;-62
2022/01/20 13:36:20;;;;;;;46.55;27.52;;;;;;;;;;4980603;28;20282;-59
2022/01/20 13:38:48;;;;;;;51.33;29.70;;;;;;;;;;4984540;28;20484;-62
2022/01/20 13:41:19;;;;;;;49.88;26.85;;;;;;;;;;4995786;28;20117;-63
2022/01/20 13:46:38;;;;;;;41.40;24.80;;;;;;;;;;4993987;28;20502;-59
2022/01/20 13:49:15;;;;;;;41.63;22.95;;;;;;;;;;4996692;28;20062;-59
2022/01/20 13:51:41;;;;;;;40.38;22.30;;;;;;;;;;4997021;28;20073;-61
2022/01/20 13:54:08;;;;;;;39.55;20.30;;;;;;;;;;4997049;28;20053;-60
2022/01/20 13:56:34;;;;;;;39.42;20.65;;;;;;;;;;4996493;28;20038;-60
2022/01/20 13:59:05;;;;;;;40.20;22.80;;;;;;;;;;4995631;28;20034;-65
2022/01/20 14:01:31;;;;;;;40.10;21.48;;;;;;;;;;4996084;28;20065;-63
2022/01/20 14:03:57;;;;;;;45.58;22.35;;;;;;;;;;4994800;28;20027;-62
2022/01/20 14:06:23;;;;;;;41.95;22.05;;;;;;;;;;4978768;28;20058;-61
2022/01/20 14:08:50;;;;;;;38.47;18.52;;;;;;;;;;4977154;28;20377;-57
2022/01/20 14:11:16;;;;;;;39.67;18.77;;;;;;;;;;4976957;28;20026;-57
2022/01/20 14:13:43;;;;;;;32.00;17.75;;;;;;;;;;4990412;28;20445;-61
2022/01/20 14:16:09;;;;;;;34.58;18.92;;;;;;;;;;4996578;28;20054;-59
2022/01/20 14:18:42;;;;;;;153.85;72.90;;;;;;;;;;4994348;28;20543;-62
2022/01/20 14:21:20;;;;;;;224.43;106.10;;;;;;;;;;4981488;28;20058;-60
2022/01/20 14:23:46;;;;;;;103.90;48.80;;;;;;;;;;4976621;28;20073;-60
2022/01/20 14:26:21;;;;;;;76.82;37.70;;;;;;;;;;4976280;28;20019;-61
2022/01/20 14:28:48;;;;;;;67.95;33.58;;;;;;;;;;4980801;28;20419;-61
2022/01/20 14:31:14;;;;;;;68.28;33.03;;;;;;;;;;4995648;28;20038;-63
2022/01/20 14:33:41;;;;;;;69.18;36.80;;;;;;;;;;4984421;28;20030;-60
2022/01/20 14:36:07;;;;;;;76.40;41.75;;;;;;;;;;4996247;28;20019;-59
2022/01/20 14:38:33;;;;;;;90.45;47.60;;;;;;;;;;4995420;28;20019;-62
2022/01/20 14:40:59;;;;;;;144.95;79.60;;;;;;;;;;4978652;28;20023;-62
2022/01/20 14:43:26;;;;;;;129.75;65.63;;;;;;;;;;4976233;28;20033;-62
2022/01/20 14:45:52;;;;;;;140.63;73.88;;;;;;;;;;4976428;28;20033;-58
2022/01/20 14:48:19;;;;;;;115.15;61.58;;;;;;;;;;4976166;28;20051;-60
2022/01/20 14:50:45;;;;;;;125.72;66.68;;;;;;;;;;4977697;28;20026;-61
2022/01/20 14:53:11;;;;;;;87.30;46.40;;;;;;;;;;4997109;28;20050;-60
2022/01/20 14:55:38;;;;;;;105.78;59.33;;;;;;;;;;4993654;28;20117;-63
2022/01/20 14:58:04;;;;;;;63.95;35.50;;;;;;;;;;4975811;28;20030;-60
2022/01/20 15:00:30;;;;;;;59.47;28.65;;;;;;;;;;4975501;28;20421;-63
2022/01/20 15:02:56;;;;;;;72.03;40.38;;;;;;;;;;4975146;28;20038;-61
2022/01/20 15:05:24;;;;;;;94.13;48.30;;;;;;;;;;4975161;28;20023;-61
2022/01/20 15:07:50;;;;;;;103.10;56.33;;;;;;;;;;4974859;28;20349;-62
2022/01/20 15:10:17;;;;;;;98.90;52.28;;;;;;;;;;4975782;28;20096;-62
2022/01/20 15:12:44;;;;;;;127.75;63.15;;;;;;;;;;4975128;28;20372;-62
2022/01/20 15:15:11;;;;;;;160.90;84.78;;;;;;;;;;4975614;28;20050;-59
2022/01/20 15:17:37;;;;;;;175.48;89.43;;;;;;;;;;4975857;28;20065;-58
2022/01/20 15:20:04;;;;;;;166.75;90.38;;;;;;;;;;4975725;28;20037;-61
2022/01/20 15:22:30;;;;;;;163.32;88.78;;;;;;;;;;4988750;28;20037;-61